sensor_id;sensor_type;location;lat;lon;timestamp;temperature;humidity
17170;DHT22;8700;48.222;16.342;2023-11-19T00:03:08;6.50;99.90
17170;DHT22;8700;48.222;16.342;2023-11-19T00:06:33;6.50;99.90
17170;DHT22;8700;48.222;16.342;2023-11-19T00:09:55;6.60;99.90
17170;DHT22;8700;48.222;16.342;2023-11-19T00:13:17;6.70;99.90
17170;DHT22;8700;48.222;16.342;2023-11-19T00:16:38;6.70;99.90
17170;DHT22;8700;48.222;16.342;2023-11-19T00:19:59;6.70;99.90
17170;DHT22;8700;48.222;16.342;2023-11-19T00:23:20;6.60;99.90
17170;DHT22;8700;48.222;16.342;2023-11-19T00:26:43;6.60;99.90
17170;DHT22;8700;48.222;16.342;2023-11-19T00:30:05;6.60;99.90
17170;DHT22;8700;48.222;16.342;2023-11-19T00:33:26;6.60;99.90
17170;DHT22;8700;48.222;16.342;2023-11-19T00:36:48;6.50;99.90
17170;DHT22;8700;48.222;16.342;2023-11-19T00:40:10;6.50;99.90
17170;DHT22;8700;48.222;16.342;2023-11-19T00:43:32;6.50;99.90
17170;DHT22;8700;48.222;16.342;2023-11-19T00:46:54;6.60;99.90
17170;DHT22;8700;48.222;16.342;2023-11-19T00:50:15;6.70;99.90
17170;DHT22;8700;48.222;16.342;2023-11-19T00:53:37;6.50;99.90
17170;DHT22;8700;48.222;16.342;2023-11-19T00:56:58;6.30;99.90
17170;DHT22;8700;48.222;16.342;2023-11-19T01:00:22;5.90;99.90
17170;DHT22;8700;48.222;16.342;2023-11-19T01:03:46;5.90;99.90
17170;DHT22;8700;48.222;16.342;2023-11-19T01:07:07;5.80;99.90
17170;DHT22;8700;48.222;16.342;2023-11-19T01:10:32;5.60;99.90
17170;DHT22;8700;48.222;16.342;2023-11-19T01:13:53;5.70;99.90
17170;DHT22;8700;48.222;16.342;2023-11-19T01:17:16;6.00;99.90
17170;DHT22;8700;48.222;16.342;2023-11-19T01:20:37;6.10;99.90
17170;DHT22;8700;48.222;16.342;2023-11-19T01:23:58;6.30;99.90
17170;DHT22;8700;48.222;16.342;2023-11-19T01:27:20;6.30;99.90
17170;DHT22;8700;48.222;16.342;2023-11-19T01:30:41;6.40;99.90
17170;DHT22;8700;48.222;16.342;2023-11-19T01:34:04;6.50;99.90
17170;DHT22;8700;48.222;16.342;2023-11-19T01:37:25;6.50;99.90
17170;DHT22;8700;48.222;16.342;2023-11-19T01:40:46;6.40;99.90
17170;DHT22;8700;48.222;16.342;2023-11-19T01:44:07;6.40;99.90
17170;DHT22;8700;48.222;16.342;2023-11-19T01:47:30;6.50;99.90
17170;DHT22;8700;48.222;16.342;2023-11-19T01:50:53;6.40;99.90
17170;DHT22;8700;48.222;16.342;2023-11-19T01:54:15;6.20;99.90
17170;DHT22;8700;48.222;16.342;2023-11-19T01:57:36;6.00;99.90
17170;DHT22;8700;48.222;16.342;2023-11-19T02:01:00;6.00;99.90
17170;DHT22;8700;48.222;16.342;2023-11-19T02:04:23;6.00;99.90
17170;DHT22;8700;48.222;16.342;2023-11-19T02:07:46;6.20;99.90
17170;DHT22;8700;48.222;16.342;2023-11-19T02:11:07;6.30;99.90
17170;DHT22;8700;48.222;16.342;2023-11-19T02:14:28;6.50;99.90
17170;DHT22;8700;48.222;16.342;2023-11-19T02:17:51;6.50;99.90
17170;DHT22;8700;48.222;16.342;2023-11-19T02:21:12;6.50;99.90
17170;DHT22;8700;48.222;16.342;2023-11-19T02:24:36;6.40;99.90
17170;DHT22;8700;48.222;16.342;2023-11-19T02:28:00;6.40;99.90
17170;DHT22;8700;48.222;16.342;2023-11-19T02:31:21;6.50;99.90
17170;DHT22;8700;48.222;16.342;2023-11-19T02:34:43;6.50;99.90
17170;DHT22;8700;48.222;16.342;2023-11-19T02:38:03;6.50;99.90
17170;DHT22;8700;48.222;16.342;2023-11-19T02:41:26;6.40;99.90
17170;DHT22;8700;48.222;16.342;2023-11-19T02:44:49;6.30;99.90
17170;DHT22;8700;48.222;16.342;2023-11-19T02:48:10;6.00;99.90
17170;DHT22;8700;48.222;16.342;2023-11-19T02:51:31;6.10;99.90
17170;DHT22;8700;48.222;16.342;2023-11-19T02:54:52;5.90;99.90
17170;DHT22;8700;48.222;16.342;2023-11-19T02:58:13;6.00;99.90
17170;DHT22;8700;48.222;16.342;2023-11-19T03:01:41;5.80;99.90
17170;DHT22;8700;48.222;16.342;2023-11-19T03:05:04;5.80;99.90
17170;DHT22;8700;48.222;16.342;2023-11-19T03:08:25;5.50;99.90
17170;DHT22;8700;48.222;16.342;2023-11-19T03:11:46;5.30;99.90
17170;DHT22;8700;48.222;16.342;2023-11-19T03:15:08;5.20;99.90
17170;DHT22;8700;48.222;16.342;2023-11-19T03:18:31;5.40;99.90
17170;DHT22;8700;48.222;16.342;2023-11-19T03:21:53;5.30;99.90
17170;DHT22;8700;48.222;16.342;2023-11-19T03:25:14;5.10;99.90
17170;DHT22;8700;48.222;16.342;2023-11-19T03:28:35;4.90;99.90
17170;DHT22;8700;48.222;16.342;2023-11-19T03:31:56;4.90;99.90
17170;DHT22;8700;48.222;16.342;2023-11-19T03:35:18;5.10;99.90
17170;DHT22;8700;48.222;16.342;2023-11-19T03:38:40;5.10;99.90
17170;DHT22;8700;48.222;16.342;2023-11-19T03:42:03;5.40;99.90
17170;DHT22;8700;48.222;16.342;2023-11-19T03:45:24;5.20;99.90
17170;DHT22;8700;48.222;16.342;2023-11-19T03:48:46;5.10;99.90
17170;DHT22;8700;48.222;16.342;2023-11-19T03:52:08;5.30;99.90
17170;DHT22;8700;48.222;16.342;2023-11-19T03:55:30;5.50;99.90
17170;DHT22;8700;48.222;16.342;2023-11-19T03:58:51;5.70;99.90
17170;DHT22;8700;48.222;16.342;2023-11-19T04:02:13;5.70;99.90
17170;DHT22;8700;48.222;16.342;2023-11-19T04:05:34;5.70;99.90
17170;DHT22;8700;48.222;16.342;2023-11-19T04:08:56;5.60;99.90
17170;DHT22;8700;48.222;16.342;2023-11-19T04:12:17;5.60;99.90
17170;DHT22;8700;48.222;16.342;2023-11-19T04:15:39;5.50;99.90
17170;DHT22;8700;48.222;16.342;2023-11-19T04:19:00;5.50;99.90
17170;DHT22;8700;48.222;16.342;2023-11-19T04:22:21;5.40;99.90
17170;DHT22;8700;48.222;16.342;2023-11-19T04:25:43;5.60;99.90
17170;DHT22;8700;48.222;16.342;2023-11-19T04:29:04;5.40;99.90
17170;DHT22;8700;48.222;16.342;2023-11-19T04:32:25;5.40;99.90
17170;DHT22;8700;48.222;16.342;2023-11-19T04:35:47;5.60;99.90
17170;DHT22;8700;48.222;16.342;2023-11-19T04:39:08;5.60;99.90
17170;DHT22;8700;48.222;16.342;2023-11-19T04:42:34;5.80;99.90
17170;DHT22;8700;48.222;16.342;2023-11-19T04:45:54;5.60;99.90
17170;DHT22;8700;48.222;16.342;2023-11-19T04:49:16;5.50;99.90
17170;DHT22;8700;48.222;16.342;2023-11-19T04:52:38;5.60;99.90
17170;DHT22;8700;48.222;16.342;2023-11-19T04:56:07;5.70;99.90
17170;DHT22;8700;48.222;16.342;2023-11-19T04:59:30;5.50;99.90
17170;DHT22;8700;48.222;16.342;2023-11-19T05:02:53;5.50;99.90
17170;DHT22;8700;48.222;16.342;2023-11-19T05:06:15;5.50;99.90
17170;DHT22;8700;48.222;16.342;2023-11-19T05:09:36;5.50;99.90
17170;DHT22;8700;48.222;16.342;2023-11-19T05:12:57;5.50;99.90
17170;DHT22;8700;48.222;16.342;2023-11-19T05:16:19;5.60;99.90
17170;DHT22;8700;48.222;16.342;2023-11-19T05:19:40;5.50;99.90
17170;DHT22;8700;48.222;16.342;2023-11-19T05:23:02;5.60;99.90
17170;DHT22;8700;48.222;16.342;2023-11-19T05:26:23;5.40;99.90
17170;DHT22;8700;48.222;16.342;2023-11-19T05:29:44;5.50;99.90
17170;DHT22;8700;48.222;16.342;2023-11-19T05:33:07;5.60;99.90
17170;DHT22;8700;48.222;16.342;2023-11-19T05:36:28;5.60;99.90
17170;DHT22;8700;48.222;16.342;2023-11-19T05:39:49;5.80;99.90
17170;DHT22;8700;48.222;16.342;2023-11-19T05:43:10;5.90;99.90
17170;DHT22;8700;48.222;16.342;2023-11-19T05:46:31;5.90;99.90
17170;DHT22;8700;48.222;16.342;2023-11-19T05:49:54;5.70;99.90
17170;DHT22;8700;48.222;16.342;2023-11-19T05:53:15;5.60;99.90
17170;DHT22;8700;48.222;16.342;2023-11-19T05:56:36;5.60;99.90
17170;DHT22;8700;48.222;16.342;2023-11-19T05:59:57;5.50;99.90
17170;DHT22;8700;48.222;16.342;2023-11-19T06:03:19;5.70;99.90
17170;DHT22;8700;48.222;16.342;2023-11-19T06:06:42;5.80;99.90
17170;DHT22;8700;48.222;16.342;2023-11-19T06:10:04;5.90;99.90
17170;DHT22;8700;48.222;16.342;2023-11-19T06:13:26;5.90;99.90
17170;DHT22;8700;48.222;16.342;2023-11-19T06:16:47;5.70;99.90
17170;DHT22;8700;48.222;16.342;2023-11-19T06:20:08;5.60;99.90
17170;DHT22;8700;48.222;16.342;2023-11-19T06:23:33;5.40;99.90
17170;DHT22;8700;48.222;16.342;2023-11-19T06:26:54;5.10;99.90
17170;DHT22;8700;48.222;16.342;2023-11-19T06:30:15;5.10;99.90
17170;DHT22;8700;48.222;16.342;2023-11-19T06:33:36;5.00;99.90
17170;DHT22;8700;48.222;16.342;2023-11-19T06:36:57;5.10;99.90
17170;DHT22;8700;48.222;16.342;2023-11-19T06:40:20;5.20;99.90
17170;DHT22;8700;48.222;16.342;2023-11-19T06:43:41;5.50;99.90
17170;DHT22;8700;48.222;16.342;2023-11-19T06:47:03;5.50;99.90
17170;DHT22;8700;48.222;16.342;2023-11-19T06:50:24;5.50;99.90
17170;DHT22;8700;48.222;16.342;2023-11-19T06:53:45;5.50;99.90
17170;DHT22;8700;48.222;16.342;2023-11-19T06:57:08;5.50;99.90
17170;DHT22;8700;48.222;16.342;2023-11-19T07:00:29;5.40;99.90
17170;DHT22;8700;48.222;16.342;2023-11-19T07:03:52;5.40;99.90
17170;DHT22;8700;48.222;16.342;2023-11-19T07:07:13;5.60;99.90
17170;DHT22;8700;48.222;16.342;2023-11-19T07:10:35;5.40;99.90
17170;DHT22;8700;48.222;16.342;2023-11-19T07:13:57;5.50;99.90
17170;DHT22;8700;48.222;16.342;2023-11-19T07:17:20;5.40;99.90
17170;DHT22;8700;48.222;16.342;2023-11-19T07:20:44;5.30;99.90
17170;DHT22;8700;48.222;16.342;2023-11-19T07:24:06;5.40;99.90
17170;DHT22;8700;48.222;16.342;2023-11-19T07:27:27;5.50;99.90
17170;DHT22;8700;48.222;16.342;2023-11-19T07:30:50;5.20;99.90
17170;DHT22;8700;48.222;16.342;2023-11-19T07:34:11;5.30;99.90
17170;DHT22;8700;48.222;16.342;2023-11-19T07:37:33;5.30;99.90
17170;DHT22;8700;48.222;16.342;2023-11-19T07:40:54;5.40;99.90
17170;DHT22;8700;48.222;16.342;2023-11-19T07:44:16;5.40;99.90
17170;DHT22;8700;48.222;16.342;2023-11-19T07:47:38;5.40;99.90
17170;DHT22;8700;48.222;16.342;2023-11-19T07:50:59;5.70;99.90
17170;DHT22;8700;48.222;16.342;2023-11-19T07:54:20;5.80;99.90
17170;DHT22;8700;48.222;16.342;2023-11-19T07:57:42;5.80;99.90
17170;DHT22;8700;48.222;16.342;2023-11-19T08:01:03;5.60;99.90
17170;DHT22;8700;48.222;16.342;2023-11-19T08:04:26;5.60;99.90
17170;DHT22;8700;48.222;16.342;2023-11-19T08:07:47;5.60;99.90
17170;DHT22;8700;48.222;16.342;2023-11-19T08:11:08;5.90;99.90
17170;DHT22;8700;48.222;16.342;2023-11-19T08:14:29;5.90;99.90
17170;DHT22;8700;48.222;16.342;2023-11-19T08:17:50;6.00;99.90
17170;DHT22;8700;48.222;16.342;2023-11-19T08:21:13;6.00;99.90
17170;DHT22;8700;48.222;16.342;2023-11-19T08:24:35;6.10;99.90
17170;DHT22;8700;48.222;16.342;2023-11-19T08:27:56;6.10;99.90
17170;DHT22;8700;48.222;16.342;2023-11-19T08:31:17;6.20;99.90
17170;DHT22;8700;48.222;16.342;2023-11-19T08:34:38;5.90;99.90
17170;DHT22;8700;48.222;16.342;2023-11-19T08:38:01;5.80;99.90
17170;DHT22;8700;48.222;16.342;2023-11-19T08:41:22;6.10;99.90
17170;DHT22;8700;48.222;16.342;2023-11-19T08:44:43;6.00;99.90
17170;DHT22;8700;48.222;16.342;2023-11-19T08:48:07;5.90;99.90
17170;DHT22;8700;48.222;16.342;2023-11-19T08:51:28;6.10;99.90
17170;DHT22;8700;48.222;16.342;2023-11-19T08:54:50;6.10;99.90
17170;DHT22;8700;48.222;16.342;2023-11-19T08:58:12;6.30;99.90
17170;DHT22;8700;48.222;16.342;2023-11-19T09:01:33;6.30;99.90
17170;DHT22;8700;48.222;16.342;2023-11-19T09:04:54;6.70;99.90
17170;DHT22;8700;48.222;16.342;2023-11-19T09:08:15;6.80;99.90
17170;DHT22;8700;48.222;16.342;2023-11-19T09:11:37;6.70;99.90
17170;DHT22;8700;48.222;16.342;2023-11-19T09:14:58;6.80;99.90
17170;DHT22;8700;48.222;16.342;2023-11-19T09:18:19;7.20;99.90
17170;DHT22;8700;48.222;16.342;2023-11-19T09:21:41;7.30;99.90
17170;DHT22;8700;48.222;16.342;2023-11-19T09:25:02;7.20;99.90
17170;DHT22;8700;48.222;16.342;2023-11-19T09:28:26;7.10;99.90
17170;DHT22;8700;48.222;16.342;2023-11-19T09:31:47;7.10;99.90
17170;DHT22;8700;48.222;16.342;2023-11-19T09:35:09;7.30;99.90
17170;DHT22;8700;48.222;16.342;2023-11-19T09:38:33;7.40;99.90
17170;DHT22;8700;48.222;16.342;2023-11-19T09:41:57;7.50;99.90
17170;DHT22;8700;48.222;16.342;2023-11-19T09:45:21;7.30;99.90
17170;DHT22;8700;48.222;16.342;2023-11-19T09:48:42;7.60;99.90
17170;DHT22;8700;48.222;16.342;2023-11-19T09:52:04;7.80;99.90
17170;DHT22;8700;48.222;16.342;2023-11-19T09:55:25;7.70;99.90
17170;DHT22;8700;48.222;16.342;2023-11-19T09:58:47;7.90;99.90
17170;DHT22;8700;48.222;16.342;2023-11-19T10:02:09;7.80;99.90
17170;DHT22;8700;48.222;16.342;2023-11-19T10:05:31;7.70;99.90
17170;DHT22;8700;48.222;16.342;2023-11-19T10:08:52;7.70;99.90
17170;DHT22;8700;48.222;16.342;2023-11-19T10:12:13;8.00;99.90
17170;DHT22;8700;48.222;16.342;2023-11-19T10:15:37;8.10;99.90
17170;DHT22;8700;48.222;16.342;2023-11-19T10:18:59;8.10;99.90
17170;DHT22;8700;48.222;16.342;2023-11-19T10:22:22;8.10;99.90
17170;DHT22;8700;48.222;16.342;2023-11-19T10:25:44;8.00;99.90
17170;DHT22;8700;48.222;16.342;2023-11-19T10:29:05;8.20;99.90
17170;DHT22;8700;48.222;16.342;2023-11-19T10:32:26;8.30;99.90
17170;DHT22;8700;48.222;16.342;2023-11-19T10:35:55;8.20;99.90
17170;DHT22;8700;48.222;16.342;2023-11-19T10:39:18;8.20;99.90
17170;DHT22;8700;48.222;16.342;2023-11-19T10:42:41;8.10;99.90
17170;DHT22;8700;48.222;16.342;2023-11-19T10:46:09;8.00;99.90
17170;DHT22;8700;48.222;16.342;2023-11-19T10:49:31;8.20;99.90
17170;DHT22;8700;48.222;16.342;2023-11-19T10:52:57;8.20;99.90
17170;DHT22;8700;48.222;16.342;2023-11-19T10:56:20;8.20;99.90
17170;DHT22;8700;48.222;16.342;2023-11-19T10:59:45;8.20;99.90
17170;DHT22;8700;48.222;16.342;2023-11-19T11:03:11;8.10;99.90
17170;DHT22;8700;48.222;16.342;2023-11-19T11:06:35;8.00;99.90
17170;DHT22;8700;48.222;16.342;2023-11-19T11:09:58;8.00;99.90
17170;DHT22;8700;48.222;16.342;2023-11-19T11:13:22;8.00;99.90
17170;DHT22;8700;48.222;16.342;2023-11-19T11:16:44;8.00;99.90
17170;DHT22;8700;48.222;16.342;2023-11-19T11:20:08;8.20;99.90
17170;DHT22;8700;48.222;16.342;2023-11-19T11:23:55;8.40;99.90
17170;DHT22;8700;48.222;16.342;2023-11-19T11:27:34;8.20;99.90
17170;DHT22;8700;48.222;16.342;2023-11-19T11:31:16;8.10;99.90
17170;DHT22;8700;48.222;16.342;2023-11-19T11:34:57;8.20;99.90
17170;DHT22;8700;48.222;16.342;2023-11-19T11:38:22;8.20;99.90
17170;DHT22;8700;48.222;16.342;2023-11-19T11:41:44;8.20;99.90
17170;DHT22;8700;48.222;16.342;2023-11-19T11:45:07;8.30;99.90
17170;DHT22;8700;48.222;16.342;2023-11-19T11:48:30;8.40;99.90
17170;DHT22;8700;48.222;16.342;2023-11-19T11:51:58;8.20;99.90
17170;DHT22;8700;48.222;16.342;2023-11-19T11:55:23;8.00;99.90
17170;DHT22;8700;48.222;16.342;2023-11-19T11:58:46;7.90;99.90
17170;DHT22;8700;48.222;16.342;2023-11-19T12:02:10;8.00;99.90
17170;DHT22;8700;48.222;16.342;2023-11-19T12:05:31;8.10;99.90
17170;DHT22;8700;48.222;16.342;2023-11-19T12:08:59;8.10;99.90
17170;DHT22;8700;48.222;16.342;2023-11-19T12:12:22;8.20;99.90
17170;DHT22;8700;48.222;16.342;2023-11-19T12:16:08;8.30;99.90
17170;DHT22;8700;48.222;16.342;2023-11-19T12:19:31;8.60;99.90
17170;DHT22;8700;48.222;16.342;2023-11-19T12:22:53;8.60;99.90
17170;DHT22;8700;48.222;16.342;2023-11-19T12:26:38;8.60;99.90
17170;DHT22;8700;48.222;16.342;2023-11-19T12:30:00;8.60;99.90
17170;DHT22;8700;48.222;16.342;2023-11-19T12:33:24;8.70;99.90
17170;DHT22;8700;48.222;16.342;2023-11-19T12:36:46;8.50;99.90
17170;DHT22;8700;48.222;16.342;2023-11-19T12:40:13;8.40;99.90
17170;DHT22;8700;48.222;16.342;2023-11-19T12:43:35;8.20;99.90
17170;DHT22;8700;48.222;16.342;2023-11-19T12:47:01;8.00;99.90
17170;DHT22;8700;48.222;16.342;2023-11-19T12:50:23;8.00;99.90
17170;DHT22;8700;48.222;16.342;2023-11-19T12:53:52;7.90;99.90
17170;DHT22;8700;48.222;16.342;2023-11-19T12:57:14;8.20;99.90
17170;DHT22;8700;48.222;16.342;2023-11-19T13:00:35;8.40;99.90
17170;DHT22;8700;48.222;16.342;2023-11-19T13:03:57;8.10;99.90
17170;DHT22;8700;48.222;16.342;2023-11-19T13:07:21;8.00;99.90
17170;DHT22;8700;48.222;16.342;2023-11-19T13:10:52;8.10;99.90
17170;DHT22;8700;48.222;16.342;2023-11-19T13:14:13;8.30;99.90
17170;DHT22;8700;48.222;16.342;2023-11-19T13:17:34;8.40;99.90
17170;DHT22;8700;48.222;16.342;2023-11-19T13:20:55;8.30;99.90
17170;DHT22;8700;48.222;16.342;2023-11-19T13:24:17;8.70;99.90
17170;DHT22;8700;48.222;16.342;2023-11-19T13:27:39;8.90;99.90
17170;DHT22;8700;48.222;16.342;2023-11-19T13:31:00;9.10;99.90
17170;DHT22;8700;48.222;16.342;2023-11-19T13:34:22;9.30;99.90
17170;DHT22;8700;48.222;16.342;2023-11-19T13:37:44;9.00;99.90
17170;DHT22;8700;48.222;16.342;2023-11-19T13:41:05;8.70;99.90
17170;DHT22;8700;48.222;16.342;2023-11-19T13:44:28;8.70;99.90
17170;DHT22;8700;48.222;16.342;2023-11-19T13:47:49;8.80;99.90
17170;DHT22;8700;48.222;16.342;2023-11-19T13:51:10;9.00;99.90
17170;DHT22;8700;48.222;16.342;2023-11-19T13:54:31;9.10;99.90
17170;DHT22;8700;48.222;16.342;2023-11-19T13:57:52;9.20;99.90
17170;DHT22;8700;48.222;16.342;2023-11-19T14:01:14;9.30;99.90
17170;DHT22;8700;48.222;16.342;2023-11-19T14:04:36;9.50;99.90
17170;DHT22;8700;48.222;16.342;2023-11-19T14:07:57;9.50;99.90
17170;DHT22;8700;48.222;16.342;2023-11-19T14:11:19;9.50;99.90
17170;DHT22;8700;48.222;16.342;2023-11-19T14:14:40;9.50;99.90
17170;DHT22;8700;48.222;16.342;2023-11-19T14:18:03;9.50;99.90
17170;DHT22;8700;48.222;16.342;2023-11-19T14:21:24;9.40;99.90
17170;DHT22;8700;48.222;16.342;2023-11-19T14:24:46;9.20;99.90
17170;DHT22;8700;48.222;16.342;2023-11-19T14:28:07;9.30;99.90
17170;DHT22;8700;48.222;16.342;2023-11-19T14:31:28;9.20;99.90
17170;DHT22;8700;48.222;16.342;2023-11-19T14:34:51;9.10;99.90
17170;DHT22;8700;48.222;16.342;2023-11-19T14:38:13;9.10;99.90
17170;DHT22;8700;48.222;16.342;2023-11-19T14:41:34;9.30;99.90
17170;DHT22;8700;48.222;16.342;2023-11-19T14:44:56;9.30;99.90
17170;DHT22;8700;48.222;16.342;2023-11-19T14:48:17;9.20;99.90
17170;DHT22;8700;48.222;16.342;2023-11-19T14:51:40;9.10;99.90
17170;DHT22;8700;48.222;16.342;2023-11-19T14:55:01;9.10;99.90
17170;DHT22;8700;48.222;16.342;2023-11-19T14:58:22;9.20;99.90
17170;DHT22;8700;48.222;16.342;2023-11-19T15:01:45;9.20;99.90
17170;DHT22;8700;48.222;16.342;2023-11-19T15:05:07;9.20;99.90
17170;DHT22;8700;48.222;16.342;2023-11-19T15:08:31;9.30;99.90
17170;DHT22;8700;48.222;16.342;2023-11-19T15:11:53;9.50;99.90
17170;DHT22;8700;48.222;16.342;2023-11-19T15:15:14;9.70;99.90
17170;DHT22;8700;48.222;16.342;2023-11-19T15:18:36;9.80;99.90
17170;DHT22;8700;48.222;16.342;2023-11-19T15:21:57;9.80;99.90
17170;DHT22;8700;48.222;16.342;2023-11-19T15:25:20;9.70;99.90
17170;DHT22;8700;48.222;16.342;2023-11-19T15:28:42;9.70;99.90
17170;DHT22;8700;48.222;16.342;2023-11-19T15:32:04;9.50;99.90
17170;DHT22;8700;48.222;16.342;2023-11-19T15:35:26;9.40;99.90
17170;DHT22;8700;48.222;16.342;2023-11-19T15:38:48;9.20;99.90
17170;DHT22;8700;48.222;16.342;2023-11-19T15:42:10;9.10;99.90
17170;DHT22;8700;48.222;16.342;2023-11-19T15:45:32;9.00;99.90
17170;DHT22;8700;48.222;16.342;2023-11-19T15:48:57;8.90;99.90
17170;DHT22;8700;48.222;16.342;2023-11-19T15:52:18;8.70;99.90
17170;DHT22;8700;48.222;16.342;2023-11-19T15:55:39;8.60;99.90
17170;DHT22;8700;48.222;16.342;2023-11-19T15:59:02;8.50;99.90
17170;DHT22;8700;48.222;16.342;2023-11-19T16:02:24;8.40;99.90
17170;DHT22;8700;48.222;16.342;2023-11-19T16:05:45;8.40;99.90
17170;DHT22;8700;48.222;16.342;2023-11-19T16:09:06;8.50;99.90
17170;DHT22;8700;48.222;16.342;2023-11-19T16:12:29;8.40;99.90
17170;DHT22;8700;48.222;16.342;2023-11-19T16:15:51;8.30;99.90
17170;DHT22;8700;48.222;16.342;2023-11-19T16:19:13;8.20;99.90
17170;DHT22;8700;48.222;16.342;2023-11-19T16:22:34;8.20;99.90
17170;DHT22;8700;48.222;16.342;2023-11-19T16:25:56;8.20;99.90
17170;DHT22;8700;48.222;16.342;2023-11-19T16:29:17;8.30;99.90
17170;DHT22;8700;48.222;16.342;2023-11-19T16:32:51;8.20;99.90
17170;DHT22;8700;48.222;16.342;2023-11-19T16:36:14;8.20;99.90
17170;DHT22;8700;48.222;16.342;2023-11-19T16:39:35;8.10;99.90
17170;DHT22;8700;48.222;16.342;2023-11-19T16:42:56;8.10;99.90
17170;DHT22;8700;48.222;16.342;2023-11-19T16:46:18;8.10;99.90
17170;DHT22;8700;48.222;16.342;2023-11-19T16:49:40;8.20;99.90
17170;DHT22;8700;48.222;16.342;2023-11-19T16:53:02;8.30;99.90
17170;DHT22;8700;48.222;16.342;2023-11-19T16:56:23;8.30;99.90
17170;DHT22;8700;48.222;16.342;2023-11-19T16:59:45;8.30;99.90
17170;DHT22;8700;48.222;16.342;2023-11-19T17:03:08;8.30;99.90
17170;DHT22;8700;48.222;16.342;2023-11-19T17:06:30;8.50;99.90
17170;DHT22;8700;48.222;16.342;2023-11-19T17:09:51;8.50;99.90
17170;DHT22;8700;48.222;16.342;2023-11-19T17:13:12;8.40;99.90
17170;DHT22;8700;48.222;16.342;2023-11-19T17:16:34;8.20;99.90
17170;DHT22;8700;48.222;16.342;2023-11-19T17:19:56;8.00;99.90
17170;DHT22;8700;48.222;16.342;2023-11-19T17:23:19;7.90;99.90
17170;DHT22;8700;48.222;16.342;2023-11-19T17:26:40;7.90;99.90
17170;DHT22;8700;48.222;16.342;2023-11-19T17:30:04;8.00;99.90
17170;DHT22;8700;48.222;16.342;2023-11-19T17:33:25;8.10;99.90
17170;DHT22;8700;48.222;16.342;2023-11-19T17:36:46;8.20;99.90
17170;DHT22;8700;48.222;16.342;2023-11-19T17:40:09;8.20;99.90
17170;DHT22;8700;48.222;16.342;2023-11-19T17:43:33;8.20;99.90
17170;DHT22;8700;48.222;16.342;2023-11-19T17:46:54;8.00;99.90
17170;DHT22;8700;48.222;16.342;2023-11-19T17:50:15;8.00;99.90
17170;DHT22;8700;48.222;16.342;2023-11-19T17:53:36;8.00;99.90
17170;DHT22;8700;48.222;16.342;2023-11-19T17:56:59;8.20;99.90
17170;DHT22;8700;48.222;16.342;2023-11-19T18:00:20;8.20;99.90
17170;DHT22;8700;48.222;16.342;2023-11-19T18:03:42;8.30;99.90
17170;DHT22;8700;48.222;16.342;2023-11-19T18:07:03;8.20;99.90
17170;DHT22;8700;48.222;16.342;2023-11-19T18:10:25;8.10;99.90
17170;DHT22;8700;48.222;16.342;2023-11-19T18:13:47;7.90;99.90
17170;DHT22;8700;48.222;16.342;2023-11-19T18:17:09;7.90;99.90
17170;DHT22;8700;48.222;16.342;2023-11-19T18:20:31;8.00;99.90
17170;DHT22;8700;48.222;16.342;2023-11-19T18:23:52;8.10;99.90
17170;DHT22;8700;48.222;16.342;2023-11-19T18:27:13;8.10;99.90
17170;DHT22;8700;48.222;16.342;2023-11-19T18:30:35;8.20;99.90
17170;DHT22;8700;48.222;16.342;2023-11-19T18:33:57;8.20;99.90
17170;DHT22;8700;48.222;16.342;2023-11-19T18:37:18;8.10;99.90
17170;DHT22;8700;48.222;16.342;2023-11-19T18:40:39;8.20;99.90
17170;DHT22;8700;48.222;16.342;2023-11-19T18:44:00;8.30;99.90
17170;DHT22;8700;48.222;16.342;2023-11-19T18:47:23;8.30;99.90
17170;DHT22;8700;48.222;16.342;2023-11-19T18:50:44;8.30;99.90
17170;DHT22;8700;48.222;16.342;2023-11-19T18:54:05;8.50;99.90
17170;DHT22;8700;48.222;16.342;2023-11-19T18:57:28;8.50;99.90
17170;DHT22;8700;48.222;16.342;2023-11-19T19:00:50;8.60;99.90
17170;DHT22;8700;48.222;16.342;2023-11-19T19:04:13;8.60;99.90
17170;DHT22;8700;48.222;16.342;2023-11-19T19:07:35;8.70;99.90
17170;DHT22;8700;48.222;16.342;2023-11-19T19:10:56;8.70;99.90
17170;DHT22;8700;48.222;16.342;2023-11-19T19:14:17;8.80;99.90
17170;DHT22;8700;48.222;16.342;2023-11-19T19:17:38;8.60;99.90
17170;DHT22;8700;48.222;16.342;2023-11-19T19:21:01;8.50;99.90
17170;DHT22;8700;48.222;16.342;2023-11-19T19:24:22;8.60;99.90
17170;DHT22;8700;48.222;16.342;2023-11-19T19:27:44;8.50;99.90
17170;DHT22;8700;48.222;16.342;2023-11-19T19:31:05;8.40;99.90
17170;DHT22;8700;48.222;16.342;2023-11-19T19:34:26;8.30;99.90
17170;DHT22;8700;48.222;16.342;2023-11-19T19:37:50;8.30;99.90
17170;DHT22;8700;48.222;16.342;2023-11-19T19:41:11;8.30;99.90
17170;DHT22;8700;48.222;16.342;2023-11-19T19:44:33;8.30;99.90
17170;DHT22;8700;48.222;16.342;2023-11-19T19:47:55;8.30;99.90
17170;DHT22;8700;48.222;16.342;2023-11-19T19:51:16;8.30;99.90
17170;DHT22;8700;48.222;16.342;2023-11-19T19:54:51;8.30;99.90
17170;DHT22;8700;48.222;16.342;2023-11-19T19:58:12;8.30;99.90
17170;DHT22;8700;48.222;16.342;2023-11-19T20:01:37;8.40;99.90
17170;DHT22;8700;48.222;16.342;2023-11-19T20:04:58;8.40;99.90
17170;DHT22;8700;48.222;16.342;2023-11-19T20:08:19;8.40;99.90
17170;DHT22;8700;48.222;16.342;2023-11-19T20:11:42;8.40;99.90
17170;DHT22;8700;48.222;16.342;2023-11-19T20:15:05;8.40;99.90
17170;DHT22;8700;48.222;16.342;2023-11-19T20:18:26;8.30;99.90
17170;DHT22;8700;48.222;16.342;2023-11-19T20:21:49;8.30;99.90
17170;DHT22;8700;48.222;16.342;2023-11-19T20:25:10;8.30;99.90
17170;DHT22;8700;48.222;16.342;2023-11-19T20:28:35;8.30;99.90
17170;DHT22;8700;48.222;16.342;2023-11-19T20:31:56;8.40;99.90
17170;DHT22;8700;48.222;16.342;2023-11-19T20:35:18;8.30;99.90
17170;DHT22;8700;48.222;16.342;2023-11-19T20:38:39;8.20;99.90
17170;DHT22;8700;48.222;16.342;2023-11-19T20:42:00;8.20;99.90
17170;DHT22;8700;48.222;16.342;2023-11-19T20:45:25;8.00;99.90
17170;DHT22;8700;48.222;16.342;2023-11-19T20:48:47;7.90;99.90
17170;DHT22;8700;48.222;16.342;2023-11-19T20:52:09;7.90;99.90
17170;DHT22;8700;48.222;16.342;2023-11-19T20:55:31;8.10;99.90
17170;DHT22;8700;48.222;16.342;2023-11-19T20:58:52;8.00;99.90
17170;DHT22;8700;48.222;16.342;2023-11-19T21:02:15;8.10;99.90
17170;DHT22;8700;48.222;16.342;2023-11-19T21:05:36;8.20;99.90
17170;DHT22;8700;48.222;16.342;2023-11-19T21:08:59;8.20;99.90
17170;DHT22;8700;48.222;16.342;2023-11-19T21:12:20;8.40;99.90
17170;DHT22;8700;48.222;16.342;2023-11-19T21:15:41;8.70;99.90
17170;DHT22;8700;48.222;16.342;2023-11-19T21:19:04;8.80;99.90
17170;DHT22;8700;48.222;16.342;2023-11-19T21:22:25;8.70;99.90
17170;DHT22;8700;48.222;16.342;2023-11-19T21:25:46;8.60;99.90
17170;DHT22;8700;48.222;16.342;2023-11-19T21:29:07;8.50;99.90
17170;DHT22;8700;48.222;16.342;2023-11-19T21:32:30;8.40;99.90
17170;DHT22;8700;48.222;16.342;2023-11-19T21:35:53;8.30;99.90
17170;DHT22;8700;48.222;16.342;2023-11-19T21:39:14;8.30;99.90